Time;durP1;ratioP1;P1;durP2;ratioP2;P2;SDS_P1;SDS_P2;PMS_P1;PMS_P2;Temp;Humidity;BMP_temperature;BMP_pressure;BME280_temperature;BME280_humidity;BME280_pressure;Samples;Min_cycle;Max_cycle;Signal;HPM_P1;HPM_P2
2022/07/05 00:01:14;;;;;;;0.60;0.60;;;18.10;99.90;;;;;;4975651;28;20449;-77
2022/07/05 00:03:41;;;;;;;0.60;0.60;;;18.10;99.90;;;;;;4975311;28;20969;-77
2022/07/05 00:06:09;;;;;;;1.63;0.60;;;18.10;99.90;;;;;;4975494;28;20461;-77
2022/07/05 00:08:36;;;;;;;0.90;0.73;;;18.00;99.90;;;;;;4975544;28;20819;-76
2022/07/05 00:11:03;;;;;;;0.60;0.60;;;18.00;99.90;;;;;;4975242;28;20477;-76
2022/07/05 00:13:29;;;;;;;2.30;0.60;;;18.00;99.90;;;;;;4975154;28;20964;-77
2022/07/05 00:15:56;;;;;;;0.50;0.50;;;17.90;99.90;;;;;;4974953;28;20477;-77
2022/07/05 00:18:23;;;;;;;0.50;0.50;;;17.90;99.90;;;;;;4975033;28;20959;-77
2022/07/05 00:20:49;;;;;;;0.50;0.50;;;17.80;99.90;;;;;;4975084;28;20529;-77
2022/07/05 00:23:18;;;;;;;0.50;0.50;;;17.80;99.90;;;;;;4975291;28;20442;-77
2022/07/05 00:25:44;;;;;;;0.70;0.70;;;17.80;99.90;;;;;;4975129;28;20445;-77
2022/07/05 00:28:13;;;;;;;1.13;0.77;;;17.70;99.90;;;;;;4974873;28;20972;-77
2022/07/05 00:30:40;;;;;;;0.80;0.80;;;17.70;99.90;;;;;;4975168;28;20457;-77
2022/07/05 00:33:07;;;;;;;1.70;0.67;;;17.70;99.90;;;;;;4975115;28;20450;-77
2022/07/05 00:35:33;;;;;;;0.80;0.70;;;17.60;99.90;;;;;;4974984;28;20488;-77
2022/07/05 00:38:00;;;;;;;0.93;0.93;;;17.60;99.90;;;;;;4974939;28;20472;-77
2022/07/05 00:40:29;;;;;;;1.50;1.40;;;17.50;99.90;;;;;;4975019;28;20809;-77
2022/07/05 00:42:55;;;;;;;0.70;0.67;;;17.50;99.90;;;;;;4974936;28;20460;-77
2022/07/05 00:45:22;;;;;;;0.80;0.80;;;17.50;99.90;;;;;;4974595;28;20808;-77
2022/07/05 00:47:49;;;;;;;0.70;0.70;;;17.50;99.90;;;;;;4974664;28;20480;-77
2022/07/05 00:50:16;;;;;;;1.67;1.00;;;17.40;99.90;;;;;;4974863;28;20449;-77
2022/07/05 00:52:42;;;;;;;0.77;0.77;;;17.40;99.90;;;;;;4974586;28;20447;-77
2022/07/05 00:55:10;;;;;;;0.60;0.60;;;17.40;99.90;;;;;;4974475;28;20950;-77
2022/07/05 00:57:38;;;;;;;3.33;0.87;;;17.40;99.90;;;;;;4974588;28;20493;-77
2022/07/05 01:00:06;;;;;;;1.83;0.87;;;17.40;99.90;;;;;;4974720;28;20449;-77
2022/07/05 01:02:33;;;;;;;0.70;0.70;;;17.30;99.90;;;;;;4974754;28;20445;-77
2022/07/05 01:05:00;;;;;;;1.10;0.70;;;17.30;99.90;;;;;;4974657;28;20449;-76
2022/07/05 01:07:27;;;;;;;2.40;0.80;;;17.20;99.90;;;;;;4974267;28;20532;-77
2022/07/05 01:09:54;;;;;;;0.97;0.70;;;17.20;99.90;;;;;;4974653;28;20634;-77
2022/07/05 01:12:21;;;;;;;0.77;0.60;;;17.20;99.90;;;;;;4974292;28;20832;-77
2022/07/05 01:14:49;;;;;;;0.80;0.80;;;17.10;99.90;;;;;;4974582;28;20445;-77
2022/07/05 01:17:16;;;;;;;0.87;0.83;;;17.10;99.90;;;;;;4974436;28;20493;-77
2022/07/05 01:19:43;;;;;;;0.60;0.60;;;17.10;99.90;;;;;;4975140;28;20457;-77
2022/07/05 01:22:17;;;;;;;1.00;0.80;;;17.00;99.90;;;;;;4974162;28;20465;-77
2022/07/05 01:24:46;;;;;;;1.90;0.63;;;17.00;99.90;;;;;;4974517;28;20521;-77
2022/07/05 01:27:13;;;;;;;0.70;0.70;;;17.00;99.90;;;;;;4974381;28;20472;-77
2022/07/05 01:29:41;;;;;;;1.10;0.80;;;16.90;99.90;;;;;;4974434;28;20464;-77
2022/07/05 01:32:08;;;;;;;0.63;0.63;;;16.90;99.90;;;;;;4974433;28;20452;-77
2022/07/05 01:34:38;;;;;;;1.30;0.70;;;16.80;99.90;;;;;;4976871;28;20448;-76
2022/07/05 01:37:05;;;;;;;0.63;0.63;;;16.80;99.90;;;;;;4978283;28;20543;-77
2022/07/05 01:39:32;;;;;;;0.60;0.60;;;16.80;99.90;;;;;;4978283;28;20503;-76
2022/07/05 01:42:01;;;;;;;0.60;0.60;;;16.70;99.90;;;;;;4977933;28;20929;-77
2022/07/05 01:44:30;;;;;;;1.37;0.90;;;16.70;99.90;;;;;;4977875;28;20979;-77
2022/07/05 01:47:03;;;;;;;0.80;0.70;;;16.70;99.90;;;;;;4978050;28;20473;-77
2022/07/05 01:49:35;;;;;;;0.60;0.53;;;16.60;99.90;;;;;;4977860;28;20429;-77
2022/07/05 01:52:08;;;;;;;0.97;0.80;;;16.60;99.90;;;;;;4978086;28;20429;-77
2022/07/05 01:54:34;;;;;;;0.60;0.60;;;16.60;99.90;;;;;;4978043;28;20460;-77
2022/07/05 01:57:04;;;;;;;0.60;0.60;;;16.60;99.90;;;;;;4977796;28;20485;-77
2022/07/05 01:59:33;;;;;;;0.80;0.60;;;16.60;99.90;;;;;;4977880;28;20453;-76
2022/07/05 02:02:00;;;;;;;0.80;0.80;;;16.50;99.90;;;;;;4977573;28;20941;-76
2022/07/05 02:04:28;;;;;;;0.90;0.90;;;16.50;99.90;;;;;;4977526;28;20933;-76
2022/07/05 02:06:55;;;;;;;0.50;0.50;;;16.50;99.90;;;;;;4977527;28;20851;-76
2022/07/05 02:09:22;;;;;;;0.60;0.60;;;16.40;99.90;;;;;;4977740;28;20814;-76
2022/07/05 02:11:48;;;;;;;1.00;1.00;;;16.40;99.90;;;;;;4977174;28;20997;-76
2022/07/05 02:14:17;;;;;;;1.47;1.37;;;16.40;99.90;;;;;;4977363;28;20498;-76
2022/07/05 02:16:43;;;;;;;0.63;0.63;;;16.40;99.90;;;;;;4977477;28;20579;-76
2022/07/05 02:19:10;;;;;;;0.67;0.67;;;16.40;99.90;;;;;;4977797;28;20477;-77
2022/07/05 02:21:37;;;;;;;0.50;0.50;;;16.40;99.90;;;;;;4977539;28;20444;-76
2022/07/05 02:24:04;;;;;;;1.53;0.90;;;16.40;99.90;;;;;;4977474;28;20442;-76
2022/07/05 02:26:31;;;;;;;0.50;0.40;;;16.40;99.90;;;;;;4977031;28;20977;-76
2022/07/05 02:28:58;;;;;;;2.33;0.63;;;16.40;99.90;;;;;;4977140;28;20432;-76
2022/07/05 02:31:26;;;;;;;0.90;0.57;;;16.40;99.90;;;;;;4977317;28;20449;-76
2022/07/05 02:33:53;;;;;;;0.50;0.50;;;16.30;99.90;;;;;;4977255;28;20453;-76
2022/07/05 02:36:20;;;;;;;1.00;0.60;;;16.30;99.90;;;;;;4977124;28;20481;-76
2022/07/05 02:38:47;;;;;;;0.90;0.67;;;16.20;99.90;;;;;;4977199;28;20453;-77
2022/07/05 02:41:14;;;;;;;0.40;0.40;;;16.20;99.90;;;;;;4977189;28;20453;-76
2022/07/05 02:43:41;;;;;;;1.50;0.50;;;16.10;99.90;;;;;;4976890;28;20453;-76
2022/07/05 02:46:09;;;;;;;0.80;0.70;;;16.10;99.90;;;;;;4976934;28;20469;-76
2022/07/05 02:48:38;;;;;;;0.90;0.90;;;16.10;99.90;;;;;;4976737;28;20460;-76
2022/07/05 02:51:06;;;;;;;0.73;0.73;;;16.00;99.90;;;;;;4977028;28;20450;-76
2022/07/05 02:53:34;;;;;;;0.50;0.50;;;16.00;99.90;;;;;;4976667;28;20452;-76
2022/07/05 02:56:00;;;;;;;0.83;0.60;;;16.00;99.90;;;;;;4976757;28;20469;-76
2022/07/05 02:58:27;;;;;;;0.70;0.70;;;16.00;99.90;;;;;;4976889;28;20441;-76
2022/07/05 03:00:55;;;;;;;0.70;0.70;;;15.90;99.90;;;;;;4976868;28;20452;-76
2022/07/05 03:03:22;;;;;;;0.60;0.60;;;16.00;99.90;;;;;;4976539;28;20481;-76
2022/07/05 03:05:50;;;;;;;0.70;0.70;;;15.90;99.90;;;;;;4976378;28;20529;-76
2022/07/05 03:08:16;;;;;;;0.50;0.50;;;15.90;99.90;;;;;;4976694;28;20532;-76
2022/07/05 03:10:43;;;;;;;1.20;1.00;;;15.90;99.90;;;;;;4976444;28;20441;-76
2022/07/05 03:13:10;;;;;;;0.70;0.70;;;15.90;99.90;;;;;;4976669;28;20440;-76
2022/07/05 03:15:37;;;;;;;0.73;0.70;;;15.80;99.90;;;;;;4976581;28;20457;-76
2022/07/05 03:18:04;;;;;;;1.23;0.67;;;15.80;99.90;;;;;;4976378;28;20850;-76
2022/07/05 03:20:30;;;;;;;0.70;0.70;;;15.70;99.90;;;;;;4976477;28;20817;-76
2022/07/05 03:22:58;;;;;;;0.70;0.57;;;15.70;99.90;;;;;;4976417;28;20453;-76
2022/07/05 03:25:25;;;;;;;0.60;0.53;;;15.70;99.90;;;;;;4976386;28;20460;-76
2022/07/05 03:27:52;;;;;;;0.50;0.50;;;15.70;99.90;;;;;;4976265;28;20561;-76
2022/07/05 03:30:19;;;;;;;0.80;0.70;;;15.60;99.90;;;;;;4976265;28;20457;-76
2022/07/05 03:32:45;;;;;;;1.57;0.60;;;15.60;99.90;;;;;;4976239;28;20453;-76
2022/07/05 03:35:12;;;;;;;0.63;0.63;;;15.60;99.90;;;;;;4976173;28;20481;-76
2022/07/05 03:37:39;;;;;;;0.47;0.47;;;15.60;99.90;;;;;;4975711;28;20488;-76
2022/07/05 03:40:08;;;;;;;0.70;0.70;;;15.60;99.90;;;;;;4976103;28;20449;-76
2022/07/05 03:42:35;;;;;;;0.40;0.30;;;15.60;99.90;;;;;;4976011;28;20453;-76
2022/07/05 03:45:02;;;;;;;0.73;0.50;;;15.60;99.90;;;;;;4976004;28;20453;-76
2022/07/05 03:47:29;;;;;;;0.60;0.50;;;15.70;99.90;;;;;;4975683;28;20469;-76
2022/07/05 03:49:56;;;;;;;0.67;0.47;;;15.70;99.90;;;;;;4975581;28;20467;-76
2022/07/05 03:52:23;;;;;;;0.70;0.70;;;15.70;99.90;;;;;;4975877;28;20453;-76
2022/07/05 03:54:49;;;;;;;0.53;0.53;;;15.70;99.90;;;;;;4975833;28;20471;-77
2022/07/05 03:57:18;;;;;;;0.60;0.60;;;15.80;99.90;;;;;;4975095;28;20485;-77
2022/07/05 03:59:45;;;;;;;0.93;0.80;;;15.80;99.90;;;;;;4975428;28;20952;-77
2022/07/05 04:02:12;;;;;;;0.70;0.50;;;15.80;99.90;;;;;;4975400;28;20960;-76
2022/07/05 04:04:39;;;;;;;0.60;0.60;;;15.90;99.90;;;;;;4975654;28;20468;-76
2022/07/05 04:07:06;;;;;;;0.90;0.70;;;15.90;99.90;;;;;;4975534;28;20484;-76
2022/07/05 04:09:32;;;;;;;0.60;0.50;;;15.90;99.90;;;;;;4975835;28;20460;-76
2022/07/05 04:11:59;;;;;;;0.50;0.50;;;15.90;99.90;;;;;;4975105;28;20481;-77
2022/07/05 04:14:27;;;;;;;1.13;1.00;;;15.90;99.90;;;;;;4975133;28;20843;-77
2022/07/05 04:16:54;;;;;;;0.90;0.50;;;16.00;99.90;;;;;;4974995;28;20488;-77
2022/07/05 04:19:20;;;;;;;0.50;0.50;;;16.00;99.90;;;;;;4975360;28;20460;-77
2022/07/05 04:21:47;;;;;;;0.60;0.60;;;16.00;99.90;;;;;;4975343;28;20463;-77
2022/07/05 04:24:14;;;;;;;0.53;0.53;;;16.00;99.90;;;;;;4975301;28;20817;-77
2022/07/05 04:26:41;;;;;;;0.50;0.47;;;16.00;99.90;;;;;;4975165;28;20496;-77
2022/07/05 04:29:08;;;;;;;0.60;0.60;;;16.10;99.90;;;;;;4975756;28;20452;-77
2022/07/05 04:31:36;;;;;;;0.60;0.50;;;16.10;99.90;;;;;;4975186;28;20444;-77
2022/07/05 04:34:03;;;;;;;0.63;0.60;;;16.10;99.90;;;;;;4975129;28;20453;-77
2022/07/05 04:36:30;;;;;;;0.53;0.53;;;16.20;99.90;;;;;;4974629;28;20984;-77
2022/07/05 04:38:56;;;;;;;1.00;0.70;;;16.20;99.90;;;;;;4975028;28;20881;-77
2022/07/05 04:41:23;;;;;;;0.53;0.50;;;16.20;99.90;;;;;;4974986;28;20450;-77
2022/07/05 04:43:50;;;;;;;0.70;0.60;;;16.20;99.90;;;;;;4974961;28;20460;-77
2022/07/05 04:46:16;;;;;;;0.60;0.53;;;16.20;99.90;;;;;;4974888;28;20481;-77
2022/07/05 04:48:45;;;;;;;0.60;0.60;;;16.30;99.90;;;;;;4974865;28;20453;-77
2022/07/05 04:51:11;;;;;;;1.03;0.60;;;16.30;99.90;;;;;;4974867;28;20461;-77
2022/07/05 04:53:38;;;;;;;1.13;0.50;;;16.30;99.90;;;;;;4974852;28;20449;-77
2022/07/05 04:56:06;;;;;;;0.57;0.57;;;16.30;99.90;;;;;;4974460;28;20992;-77
2022/07/05 04:58:33;;;;;;;0.50;0.50;;;16.40;99.90;;;;;;4974696;28;20543;-77
2022/07/05 05:01:00;;;;;;;0.57;0.57;;;16.40;99.90;;;;;;4974319;28;20492;-77
2022/07/05 05:03:27;;;;;;;0.83;0.80;;;16.50;99.90;;;;;;4974348;28;20827;-77
2022/07/05 05:05:55;;;;;;;0.50;0.50;;;16.50;99.90;;;;;;4974578;28;20464;-77
2022/07/05 05:08:22;;;;;;;0.50;0.50;;;16.50;99.90;;;;;;4973441;28;20824;-77
2022/07/05 05:10:49;;;;;;;0.63;0.50;;;16.60;99.90;;;;;;4974431;28;20534;-76
2022/07/05 05:13:15;;;;;;;0.60;0.60;;;16.60;99.90;;;;;;4974380;28;20437;-77
2022/07/05 05:15:42;;;;;;;0.67;0.67;;;16.70;99.90;;;;;;4974498;28;20449;-77
2022/07/05 05:18:09;;;;;;;1.10;0.60;;;16.70;99.90;;;;;;4974500;28;20839;-76
2022/07/05 05:20:36;;;;;;;0.67;0.50;;;16.70;99.90;;;;;;4974550;28;20453;-76
2022/07/05 05:23:04;;;;;;;0.67;0.67;;;16.80;99.90;;;;;;4974483;28;20453;-76
2022/07/05 05:25:31;;;;;;;0.77;0.60;;;16.90;99.90;;;;;;4974416;28;20460;-76
2022/07/05 05:27:58;;;;;;;0.60;0.60;;;16.90;99.90;;;;;;4974383;28;20471;-76
2022/07/05 05:30:25;;;;;;;0.60;0.50;;;17.00;99.90;;;;;;4974392;28;20448;-76
2022/07/05 05:32:51;;;;;;;0.83;0.83;;;17.10;99.90;;;;;;4974414;28;20545;-76
2022/07/05 05:35:20;;;;;;;0.50;0.50;;;17.10;99.90;;;;;;4974053;28;20849;-76
2022/07/05 05:37:49;;;;;;;1.37;0.47;;;17.20;99.90;;;;;;4974264;28;20573;-76
2022/07/05 05:40:17;;;;;;;0.87;0.57;;;17.30;99.90;;;;;;4974401;28;20452;-76
2022/07/05 05:42:44;;;;;;;0.70;0.70;;;17.30;99.90;;;;;;4974332;28;20457;-76
2022/07/05 05:45:12;;;;;;;1.00;0.63;;;17.40;99.90;;;;;;4974319;28;20814;-76
2022/07/05 05:47:49;;;;;;;0.50;0.50;;;17.50;99.90;;;;;;4974231;28;20825;-76
2022/07/05 05:50:19;;;;;;;0.57;0.57;;;17.60;99.90;;;;;;4974318;28;20433;-76
2022/07/05 05:52:46;;;;;;;1.63;0.70;;;17.70;99.90;;;;;;4974315;28;20564;-76
2022/07/05 05:55:13;;;;;;;0.67;0.50;;;17.80;99.90;;;;;;4974205;28;20452;-76
2022/07/05 05:57:41;;;;;;;0.53;0.53;;;17.90;99.90;;;;;;4974057;28;20485;-76
2022/07/05 06:00:10;;;;;;;0.70;0.50;;;18.10;99.90;;;;;;4973878;28;21009;-76
2022/07/05 06:02:37;;;;;;;0.63;0.63;;;18.20;99.90;;;;;;4974108;28;20453;-76
2022/07/05 06:05:04;;;;;;;1.87;1.30;;;18.30;99.90;;;;;;4973826;28;20965;-76
2022/07/05 06:07:31;;;;;;;1.17;0.60;;;18.40;99.90;;;;;;4974033;28;20473;-76
2022/07/05 06:09:57;;;;;;;0.80;0.80;;;18.60;99.90;;;;;;4973784;28;20445;-76
2022/07/05 06:12:24;;;;;;;0.80;0.80;;;18.70;99.90;;;;;;4973612;28;20481;-76
2022/07/05 06:14:52;;;;;;;0.47;0.47;;;18.80;99.90;;;;;;4974056;28;20461;-76
2022/07/05 06:17:19;;;;;;;0.93;0.80;;;19.00;99.90;;;;;;4973863;28;20461;-76
2022/07/05 06:19:46;;;;;;;0.50;0.50;;;19.20;99.90;;;;;;4975335;28;20452;-76
2022/07/05 06:22:12;;;;;;;0.50;0.50;;;19.30;99.90;;;;;;4977535;28;20444;-76
2022/07/05 06:24:39;;;;;;;0.60;0.60;;;19.50;99.90;;;;;;4977530;28;20445;-76
2022/07/05 06:27:06;;;;;;;0.70;0.50;;;19.80;99.90;;;;;;4977391;28;20472;-76
2022/07/05 06:29:33;;;;;;;0.93;0.80;;;20.00;99.90;;;;;;4977416;28;20449;-76
2022/07/05 06:32:01;;;;;;;0.60;0.60;;;20.30;99.90;;;;;;4977366;28;20456;-83
2022/07/05 06:34:27;;;;;;;0.60;0.60;;;20.70;99.90;;;;;;4977194;28;20465;-77
2022/07/05 06:36:54;;;;;;;1.53;0.70;;;21.10;99.90;;;;;;4977210;28;20464;-76
2022/07/05 06:39:21;;;;;;;0.70;0.70;;;21.40;99.90;;;;;;4977200;28;20210;-77
2022/07/05 06:41:48;;;;;;;0.52;0.52;;;21.70;99.90;;;;;;4977194;28;20209;-77
2022/07/05 06:44:14;;;;;;;0.50;0.50;;;21.90;99.90;;;;;;4977257;28;20216;-77
2022/07/05 06:46:41;;;;;;;1.08;0.63;;;21.90;99.90;;;;;;4977079;28;20248;-77
2022/07/05 06:49:09;;;;;;;0.75;0.75;;;22.10;99.90;;;;;;4977303;28;20220;-77
2022/07/05 06:51:36;;;;;;;0.82;0.82;;;22.30;99.90;;;;;;4976740;28;20697;-77
2022/07/05 06:54:03;;;;;;;1.52;0.75;;;22.50;99.90;;;;;;4976993;28;20200;-77
2022/07/05 06:56:30;;;;;;;0.95;0.60;;;22.60;99.90;;;;;;4976553;28;20228;-77
2022/07/05 06:58:56;;;;;;;0.60;0.60;;;22.70;99.90;;;;;;4976819;28;20236;-77
2022/07/05 07:01:23;;;;;;;0.63;0.63;;;22.70;99.90;;;;;;4977613;28;20646;-77
2022/07/05 07:03:50;;;;;;;1.52;0.80;;;22.80;99.90;;;;;;4976800;28;20212;-77
2022/07/05 07:06:18;;;;;;;0.80;0.50;;;22.80;99.90;;;;;;4976643;28;20229;-77
2022/07/05 07:11:29;;;;;;;0.70;0.70;;;22.70;99.90;;;;;;4976485;28;20244;-77
2022/07/05 07:13:56;;;;;;;0.50;0.50;;;22.70;99.90;;;;;;4976359;28;20202;-77
2022/07/05 07:16:23;;;;;;;1.85;0.65;;;22.80;99.90;;;;;;4977331;28;20229;-77
2022/07/05 07:18:50;;;;;;;0.60;0.60;;;22.90;99.90;;;;;;4976175;28;20704;-77
2022/07/05 07:21:18;;;;;;;0.82;0.80;;;22.90;99.90;;;;;;4976532;28;20235;-77
2022/07/05 07:23:44;;;;;;;0.50;0.50;;;22.90;99.90;;;;;;4976462;28;20212;-76
2022/07/05 07:26:13;;;;;;;0.70;0.70;;;23.00;99.90;;;;;;4976321;28;20248;-76
2022/07/05 07:28:40;;;;;;;0.50;0.50;;;23.10;99.90;;;;;;4976064;28;20740;-76
2022/07/05 07:31:07;;;;;;;0.40;0.40;;;23.10;99.90;;;;;;4975448;28;20216;-76
2022/07/05 07:33:34;;;;;;;0.50;0.50;;;23.20;99.90;;;;;;4975933;28;20209;-76
2022/07/05 07:36:01;;;;;;;1.08;0.60;;;23.30;99.90;;;;;;4975916;28;20202;-77
2022/07/05 07:38:29;;;;;;;0.50;0.50;;;23.40;99.90;;;;;;4976086;28;20222;-77
2022/07/05 07:40:56;;;;;;;0.60;0.60;;;23.40;99.90;;;;;;4975803;28;20214;-77
2022/07/05 07:43:23;;;;;;;0.70;0.60;;;23.60;99.90;;;;;;4975778;28;20670;-77
2022/07/05 07:45:50;;;;;;;0.50;0.50;;;23.70;99.30;;;;;;4975943;28;20574;-77
2022/07/05 07:48:16;;;;;;;1.95;0.55;;;23.80;99.90;;;;;;4976016;28;20228;-77
2022/07/05 07:50:43;;;;;;;0.50;0.50;;;24.10;99.90;;;;;;4975920;28;20209;-77
2022/07/05 07:53:10;;;;;;;0.60;0.50;;;24.50;99.60;;;;;;4975907;28;20216;-77
2022/07/05 07:55:38;;;;;;;0.60;0.60;;;25.10;98.50;;;;;;4975496;28;20578;-77
2022/07/05 07:58:05;;;;;;;0.50;0.50;;;25.40;96.20;;;;;;4975624;28;20225;-77
2022/07/05 08:00:32;;;;;;;0.55;0.52;;;25.60;95.50;;;;;;4975758;28;20260;-77
2022/07/05 08:02:59;;;;;;;0.63;0.50;;;25.70;96.50;;;;;;4975394;28;20205;-76
2022/07/05 08:05:26;;;;;;;1.55;0.77;;;26.00;97.10;;;;;;4976254;28;20265;-77
2022/07/05 08:07:53;;;;;;;0.60;0.60;;;26.10;96.00;;;;;;4975547;28;20225;-77
2022/07/05 08:10:19;;;;;;;0.50;0.50;;;26.40;94.70;;;;;;4975591;28;20211;-76
2022/07/05 08:12:47;;;;;;;0.88;0.43;;;26.50;93.40;;;;;;4975069;28;20604;-77
2022/07/05 08:15:14;;;;;;;0.50;0.50;;;26.40;93.00;;;;;;4975155;28;20205;-77
2022/07/05 08:21:30;;;;;;;1.25;0.50;;;26.50;93.00;;;;;;4975327;28;20313;-77
2022/07/05 08:23:13;;;;;;;0.50;0.50;;;26.20;92.90;;;;;;4975292;28;20209;-77
2022/07/05 08:25:39;;;;;;;0.60;0.50;;;26.20;92.80;;;;;;4975300;28;20205;-77
2022/07/05 08:28:08;;;;;;;0.95;0.70;;;26.30;93.40;;;;;;4975238;28;20296;-77
2022/07/05 08:30:34;;;;;;;0.50;0.50;;;26.30;92.90;;;;;;4974954;28;20212;-77
2022/07/05 08:33:01;;;;;;;0.43;0.43;;;26.30;90.60;;;;;;4974926;28;20201;-77
2022/07/05 08:35:28;;;;;;;0.50;0.50;;;26.30;91.00;;;;;;4974856;28;20672;-77
2022/07/05 08:37:54;;;;;;;0.65;0.65;;;26.50;90.50;;;;;;4974717;28;20226;-76
2022/07/05 08:40:26;;;;;;;0.52;0.40;;;26.60;90.00;;;;;;4975086;28;20208;-77
2022/07/05 08:42:55;;;;;;;1.38;0.50;;;26.70;87.30;;;;;;4974978;28;20191;-77
2022/07/05 08:45:26;;;;;;;0.50;0.50;;;26.80;87.00;;;;;;4975004;28;20215;-77
2022/07/05 08:47:53;;;;;;;0.55;0.55;;;26.90;86.90;;;;;;4974622;28;20229;-77
2022/07/05 08:50:22;;;;;;;0.50;0.50;;;26.90;87.50;;;;;;4974886;28;20218;-77
2022/07/05 08:52:50;;;;;;;0.50;0.47;;;27.00;87.00;;;;;;4974849;28;20217;-76
2022/07/05 08:55:18;;;;;;;0.63;0.60;;;27.00;83.60;;;;;;4974869;28;20205;-77
2022/07/05 08:57:44;;;;;;;0.40;0.40;;;27.20;81.10;;;;;;4974743;28;20230;-77
2022/07/05 09:00:12;;;;;;;0.50;0.50;;;27.20;80.30;;;;;;4974442;28;20701;-77
2022/07/05 09:02:41;;;;;;;1.15;0.70;;;27.20;81.50;;;;;;4974434;28;20578;-77
2022/07/05 09:05:12;;;;;;;2.05;0.50;;;27.60;80.50;;;;;;4974725;28;20303;-76
2022/07/05 09:07:43;;;;;;;0.60;0.60;;;27.30;79.20;;;;;;4974688;28;20285;-77
2022/07/05 09:10:13;;;;;;;0.60;0.55;;;27.40;81.80;;;;;;4974411;28;20193;-77
2022/07/05 09:12:40;;;;;;;0.57;0.55;;;27.60;77.90;;;;;;4974242;28;20238;-77
2022/07/05 09:15:07;;;;;;;0.40;0.40;;;27.70;78.80;;;;;;4974326;28;20205;-77
2022/07/05 09:17:42;;;;;;;0.55;0.55;;;27.90;79.40;;;;;;4974548;28;20225;-77
2022/07/05 09:20:12;;;;;;;0.50;0.50;;;27.80;78.50;;;;;;4974208;28;20220;-77
2022/07/05 09:22:52;;;;;;;0.93;0.50;;;27.80;78.10;;;;;;4974554;28;20206;-77
2022/07/05 09:25:21;;;;;;;0.75;0.43;;;27.60;74.30;;;;;;4974302;28;20189;-77
2022/07/05 09:27:55;;;;;;;0.50;0.50;;;27.50;74.60;;;;;;4974448;28;20225;-77
2022/07/05 09:30:30;;;;;;;0.80;0.80;;;27.40;77.30;;;;;;4974252;28;20200;-77
2022/07/05 09:33:03;;;;;;;0.98;0.57;;;27.60;76.10;;;;;;4974186;28;20190;-77
2022/07/05 09:35:30;;;;;;;0.40;0.40;;;27.50;76.60;;;;;;4974410;28;20206;-77
2022/07/05 09:37:57;;;;;;;0.50;0.50;;;27.50;78.10;;;;;;4974967;28;20233;-77
2022/07/05 09:40:24;;;;;;;0.80;0.50;;;27.40;73.10;;;;;;4974355;28;20228;-77
2022/07/05 09:42:50;;;;;;;0.52;0.52;;;27.40;76.00;;;;;;4974076;28;20677;-77
2022/07/05 09:45:24;;;;;;;0.60;0.60;;;27.40;74.00;;;;;;4974416;28;20209;-77
2022/07/05 09:47:50;;;;;;;0.45;0.45;;;27.10;75.30;;;;;;4974318;28;20226;-77
2022/07/05 09:50:37;;;;;;;0.70;0.70;;;26.90;77.10;;;;;;4973936;28;20205;-77
2022/07/05 09:53:04;;;;;;;0.98;0.60;;;26.90;76.30;;;;;;4974064;28;20197;-77
2022/07/05 09:55:31;;;;;;;0.70;0.55;;;26.90;71.90;;;;;;4976650;28;20209;-77
2022/07/05 09:57:58;;;;;;;0.50;0.50;;;27.00;71.90;;;;;;4977978;28;20229;-77
2022/07/05 10:00:24;;;;;;;0.60;0.60;;;27.10;69.30;;;;;;4977893;28;20229;-77
2022/07/05 10:02:53;;;;;;;0.75;0.75;;;27.20;72.00;;;;;;4977618;28;20301;-77
2022/07/05 10:05:22;;;;;;;0.50;0.50;;;27.10;69.80;;;;;;4977879;28;20211;-77
2022/07/05 10:07:52;;;;;;;0.50;0.50;;;27.00;70.70;;;;;;4977749;28;20229;-77
2022/07/05 10:10:22;;;;;;;0.50;0.50;;;27.00;72.40;;;;;;4977799;28;20202;-77
2022/07/05 10:12:50;;;;;;;0.40;0.40;;;27.00;68.00;;;;;;4977346;28;20241;-77
2022/07/05 10:15:19;;;;;;;0.50;0.50;;;27.10;68.20;;;;;;4977403;28;20205;-77
2022/07/05 10:17:48;;;;;;;2.05;0.60;;;26.80;68.40;;;;;;4977635;28;20237;-77
2022/07/05 10:20:19;;;;;;;0.60;0.60;;;26.80;67.40;;;;;;4977246;28;20731;-76
2022/07/05 10:22:47;;;;;;;0.50;0.50;;;27.00;68.80;;;;;;4977601;28;20197;-77
2022/07/05 10:25:16;;;;;;;0.60;0.60;;;27.20;68.30;;;;;;4977451;28;20215;-77
2022/07/05 10:27:43;;;;;;;0.50;0.50;;;27.20;70.40;;;;;;4977435;28;20229;-77
2022/07/05 10:30:11;;;;;;;0.50;0.50;;;27.40;69.50;;;;;;4977482;28;20206;-77
2022/07/05 10:32:40;;;;;;;0.57;0.55;;;27.40;70.60;;;;;;4977130;28;20240;-76
2022/07/05 10:35:08;;;;;;;0.50;0.50;;;27.30;69.00;;;;;;4977380;28;20208;-76
2022/07/05 10:37:36;;;;;;;3.22;0.63;;;27.10;71.70;;;;;;4976953;28;20232;-77
2022/07/05 10:40:05;;;;;;;1.08;0.57;;;26.90;71.80;;;;;;4976886;28;20712;-77
2022/07/05 10:42:38;;;;;;;0.50;0.50;;;26.80;72.00;;;;;;4977262;28;20204;-77
2022/07/05 10:45:32;;;;;;;0.60;0.60;;;26.80;69.00;;;;;;4976947;28;20669;-77
2022/07/05 10:48:23;;;;;;;0.82;0.50;;;26.90;68.50;;;;;;4977143;28;20229;-77
2022/07/05 10:50:51;;;;;;;0.40;0.40;;;27.00;69.90;;;;;;4962406;28;20689;-77
2022/07/05 10:53:20;;;;;;;1.90;0.50;;;26.90;68.20;;;;;;4977005;28;20224;-77
2022/07/05 10:55:55;;;;;;;0.40;0.40;;;27.00;71.00;;;;;;4976920;28;20631;-76
2022/07/05 10:58:31;;;;;;;2.65;0.60;;;27.10;70.60;;;;;;4976963;28;20205;-77
2022/07/05 11:01:32;;;;;;;0.80;0.80;;;26.90;71.30;;;;;;4976962;28;20208;-76
2022/07/05 11:04:13;;;;;;;0.40;0.40;;;26.80;69.10;;;;;;4976680;28;20209;-77
2022/07/05 11:06:42;;;;;;;0.50;0.50;;;26.90;71.10;;;;;;4975198;28;20229;-77
2022/07/05 11:09:20;;;;;;;0.55;0.55;;;27.30;73.10;;;;;;4976472;28;20666;-79
2022/07/05 11:11:47;;;;;;;1.48;0.55;;;27.90;67.90;;;;;;4976453;28;20241;-80
2022/07/05 11:14:37;;;;;;;0.50;0.50;;;28.10;68.00;;;;;;4976650;28;20261;-80
2022/07/05 11:17:25;;;;;;;0.77;0.60;;;28.20;67.70;;;;;;4976539;28;20705;-80
2022/07/05 11:20:10;;;;;;;0.60;0.60;;;28.10;67.20;;;;;;4976464;28;20245;-80
2022/07/05 11:22:39;;;;;;;0.65;0.60;;;28.00;70.20;;;;;;4976579;28;20190;-79
2022/07/05 11:25:08;;;;;;;0.50;0.50;;;28.00;71.00;;;;;;4976430;28;20216;-79
2022/07/05 11:27:35;;;;;;;0.60;0.60;;;28.00;69.50;;;;;;4976372;28;20229;-79
2022/07/05 11:30:04;;;;;;;1.15;0.70;;;27.80;69.70;;;;;;4976386;28;20201;-79
2022/07/05 11:32:38;;;;;;;1.95;0.60;;;27.70;71.00;;;;;;4976325;28;20241;-79
2022/07/05 11:35:17;;;;;;;0.40;0.40;;;27.50;69.20;;;;;;4976044;28;20196;-79
2022/07/05 11:37:59;;;;;;;0.60;0.60;;;27.50;69.90;;;;;;4976219;28;20316;-79
2022/07/05 11:40:31;;;;;;;0.50;0.50;;;27.40;70.50;;;;;;4976698;28;20276;-79
2022/07/05 11:42:59;;;;;;;0.60;0.60;;;27.30;68.30;;;;;;4976167;28;20594;-80
2022/07/05 11:45:27;;;;;;;0.60;0.55;;;27.20;69.60;;;;;;4976121;28;20212;-80
2022/07/05 11:47:56;;;;;;;0.60;0.50;;;27.20;67.10;;;;;;4975986;28;20232;-79
2022/07/05 11:50:27;;;;;;;0.73;0.50;;;27.10;67.10;;;;;;4975996;28;20279;-79
2022/07/05 11:52:54;;;;;;;0.60;0.60;;;27.20;67.70;;;;;;4976024;28;20196;-79
2022/07/05 11:55:21;;;;;;;0.80;0.80;;;27.00;71.10;;;;;;4975899;28;20205;-80
2022/07/05 11:57:52;;;;;;;0.70;0.55;;;27.00;69.50;;;;;;4975457;28;20717;-79
2022/07/05 12:00:32;;;;;;;0.52;0.50;;;26.90;69.10;;;;;;4975728;28;20229;-79
2022/07/05 12:03:00;;;;;;;0.60;0.60;;;26.80;69.60;;;;;;4975799;28;20205;-79
2022/07/05 12:05:32;;;;;;;0.50;0.50;;;26.70;70.50;;;;;;4975684;28;20206;-79
2022/07/05 12:07:58;;;;;;;0.60;0.60;;;26.80;70.70;;;;;;4976445;28;20310;-79
2022/07/05 12:13:10;;;;;;;0.70;0.70;;;26.80;74.40;;;;;;4975668;28;20236;-79
2022/07/05 12:15:39;;;;;;;0.65;0.65;;;26.90;74.70;;;;;;4975538;28;20268;-79
2022/07/05 12:18:08;;;;;;;0.60;0.60;;;26.80;70.70;;;;;;4974946;28;20229;-79
2022/07/05 12:20:37;;;;;;;0.50;0.50;;;26.80;73.10;;;;;;4975380;28;20229;-80
2022/07/05 12:23:04;;;;;;;0.98;0.60;;;26.80;68.40;;;;;;4976230;28;20205;-79
2022/07/05 12:25:32;;;;;;;0.63;0.60;;;26.80;67.40;;;;;;4975327;28;20209;-79
2022/07/05 12:28:03;;;;;;;0.40;0.40;;;26.70;67.40;;;;;;4975221;28;20237;-79
2022/07/05 12:30:31;;;;;;;0.50;0.50;;;26.80;66.60;;;;;;4975324;28;20238;-79
2022/07/05 12:33:00;;;;;;;0.65;0.65;;;26.70;67.80;;;;;;4975378;28;20197;-79
2022/07/05 12:35:39;;;;;;;0.70;0.60;;;26.40;68.90;;;;;;4975165;28;20213;-79
2022/07/05 12:38:07;;;;;;;0.52;0.52;;;26.20;70.60;;;;;;4975090;28;20229;-79
2022/07/05 12:40:35;;;;;;;0.75;0.60;;;25.90;69.60;;;;;;4974968;28;20236;-79
2022/07/05 12:43:04;;;;;;;0.70;0.70;;;25.80;71.10;;;;;;4975063;28;20209;-79
2022/07/05 12:45:31;;;;;;;0.60;0.60;;;25.70;72.30;;;;;;4975087;28;20202;-79
2022/07/05 12:48:02;;;;;;;1.20;0.60;;;25.70;73.40;;;;;;4974977;28;20236;-79
2022/07/05 12:50:31;;;;;;;0.60;0.60;;;25.80;73.60;;;;;;4974962;28;20209;-79
2022/07/05 12:58:01;;;;;;;0.60;0.60;;;25.80;72.30;;;;;;4974912;28;20213;-79
2022/07/05 12:58:47;;;;;;;0.68;0.68;;;25.70;73.30;;;;;;4974494;28;20257;-79
2022/07/05 13:01:25;;;;;;;0.65;0.65;;;25.80;73.00;;;;;;4974440;28;20209;-79
2022/07/05 13:04:02;;;;;;;0.52;0.52;;;25.80;71.80;;;;;;4974700;28;20205;-79
2022/07/05 13:06:51;;;;;;;0.50;0.50;;;25.70;73.10;;;;;;4974671;28;20252;-79